createdAt,value
2023-03-11T00:00:48.840Z,6.50
2023-03-11T00:03:29.183Z,6.33
2023-03-11T00:06:01.485Z,6.00
2023-03-11T00:08:29.498Z,6.00
2023-03-11T00:11:00.733Z,6.67
2023-03-11T00:13:29.671Z,6.50
2023-03-11T00:15:58.074Z,6.50
2023-03-11T00:18:28.212Z,5.50
2023-03-11T00:20:58.578Z,5.75
2023-03-11T00:23:27.286Z,6.00
2023-03-11T00:25:56.092Z,6.00
2023-03-11T00:28:26.221Z,6.00
2023-03-11T00:30:54.834Z,6.00
2023-03-11T00:33:23.477Z,6.00
2023-03-11T00:35:52.072Z,6.00
2023-03-11T00:38:21.436Z,6.00
2023-03-11T00:40:50.252Z,6.00
2023-03-11T00:43:18.418Z,5.75
2023-03-11T00:45:46.814Z,6.00
2023-03-11T00:48:15.452Z,5.50
2023-03-11T00:50:43.937Z,6.00
2023-03-11T00:53:12.501Z,6.25
2023-03-11T00:55:41.970Z,6.00
2023-03-11T00:58:13.291Z,6.00
2023-03-11T01:00:45.653Z,5.75
2023-03-11T01:03:13.783Z,6.00
2023-03-11T01:05:42.219Z,6.00
2023-03-11T01:08:10.527Z,5.33
2023-03-11T01:10:39.273Z,6.00
2023-03-11T01:13:07.397Z,5.50
2023-03-11T01:15:37.497Z,5.75
2023-03-11T01:18:06.460Z,5.75
2023-03-11T01:20:37.920Z,6.00
2023-03-11T01:23:07.242Z,6.00
2023-03-11T01:25:36.256Z,6.00
2023-03-11T01:28:05.034Z,5.75
2023-03-11T01:30:33.463Z,5.75
2023-03-11T01:33:02.320Z,6.00
2023-03-11T01:35:31.775Z,5.50
2023-03-11T01:38:00.296Z,6.00
2023-03-11T01:40:36.180Z,5.00
2023-03-11T01:43:37.311Z,6.00
2023-03-11T01:46:20.857Z,5.50
2023-03-11T01:48:52.030Z,5.25
2023-03-11T01:51:29.414Z,6.00
2023-03-11T01:54:01.581Z,5.50
2023-03-11T01:56:30.750Z,5.00
2023-03-11T01:58:59.770Z,6.00
2023-03-11T02:01:28.619Z,5.00
2023-03-11T02:03:58.227Z,5.75
2023-03-11T02:06:26.867Z,5.50
2023-03-11T02:08:56.250Z,5.00
2023-03-11T02:11:27.864Z,5.75
2023-03-11T02:14:00.133Z,6.00
2023-03-11T02:16:28.986Z,5.75
2023-03-11T02:19:00.917Z,5.00
2023-03-11T02:21:31.697Z,6.00
2023-03-11T02:24:08.841Z,6.00
2023-03-11T02:26:59.266Z,5.67
2023-03-11T02:29:29.649Z,5.33
2023-03-11T02:32:01.438Z,6.00
2023-03-11T02:34:32.148Z,5.75
2023-03-11T02:37:05.107Z,5.75
2023-03-11T02:39:35.808Z,6.00
2023-03-11T02:42:12.873Z,5.75
2023-03-11T02:44:43.322Z,5.75
2023-03-11T02:47:12.055Z,6.00
2023-03-11T02:49:40.757Z,6.00
2023-03-11T02:52:09.212Z,6.00
2023-03-11T02:54:37.324Z,5.75
2023-03-11T02:57:05.927Z,6.00
2023-03-11T02:59:34.466Z,6.00
2023-03-11T03:02:04.014Z,6.00
2023-03-11T03:04:33.178Z,6.00
2023-03-11T03:07:02.183Z,6.00
2023-03-11T03:09:30.454Z,5.00
2023-03-11T03:11:58.908Z,6.00
2023-03-11T03:14:27.125Z,6.00
2023-03-11T03:16:55.787Z,6.00
2023-03-11T03:19:24.084Z,6.00
2023-03-11T03:21:52.802Z,5.67
2023-03-11T03:24:22.791Z,5.75
2023-03-11T03:26:52.502Z,6.00
2023-03-11T03:29:20.721Z,6.00
2023-03-11T03:31:51.119Z,6.00
2023-03-11T03:34:19.294Z,5.75
2023-03-11T03:36:47.825Z,5.50
2023-03-11T03:39:16.284Z,5.67
2023-03-11T03:41:44.683Z,5.00
2023-03-11T03:44:13.737Z,6.00
2023-03-11T03:46:42.304Z,5.00
2023-03-11T03:49:11.285Z,5.00
2023-03-11T03:51:40.825Z,5.75
2023-03-11T03:54:19.134Z,6.00
2023-03-11T03:56:47.589Z,6.00
2023-03-11T03:59:15.964Z,6.00
2023-03-11T04:01:50.791Z,5.00
2023-03-11T04:04:20.549Z,5.50
2023-03-11T04:06:49.559Z,5.00
2023-03-11T04:09:20.079Z,5.67
2023-03-11T04:11:48.741Z,5.25
2023-03-11T04:14:18.579Z,5.00
2023-03-11T04:16:54.854Z,6.00
2023-03-11T04:19:22.970Z,5.25
2023-03-11T04:21:52.369Z,5.00
2023-03-11T04:24:22.398Z,5.50
2023-03-11T04:26:51.517Z,5.25
2023-03-11T04:29:20.149Z,5.00
2023-03-11T04:31:52.312Z,6.25
2023-03-11T04:34:20.867Z,5.75
2023-03-11T04:36:52.815Z,5.50
2023-03-11T04:39:22.744Z,5.75
2023-03-11T04:41:52.297Z,5.75
2023-03-11T04:44:24.091Z,5.00
2023-03-11T04:46:53.005Z,5.25
2023-03-11T04:49:21.381Z,5.25
2023-03-11T04:51:51.751Z,5.00
2023-03-11T04:54:23.081Z,5.67
2023-03-11T04:56:51.677Z,5.50
2023-03-11T04:59:20.686Z,5.50
2023-03-11T05:01:50.503Z,5.25
2023-03-11T05:04:19.029Z,5.00
2023-03-11T05:06:51.032Z,6.00
2023-03-11T05:09:19.542Z,5.00
2023-03-11T05:11:48.242Z,5.00
2023-03-11T05:14:19.487Z,5.00
2023-03-11T05:16:48.463Z,5.00
2023-03-11T05:19:31.996Z,6.00
2023-03-11T05:22:04.644Z,5.00
2023-03-11T05:24:32.814Z,5.50
2023-03-11T05:27:02.302Z,5.00
2023-03-11T05:29:32.481Z,5.50
2023-03-11T05:32:00.996Z,6.00
2023-03-11T05:34:29.061Z,5.00
2023-03-11T05:36:57.543Z,5.33
2023-03-11T05:39:25.733Z,5.00
2023-03-11T05:41:56.636Z,5.00
2023-03-11T05:44:25.657Z,6.00
2023-03-11T05:46:54.662Z,5.00
2023-03-11T05:49:23.368Z,5.00
2023-03-11T05:51:58.054Z,5.75
2023-03-11T05:54:27.855Z,6.00
2023-03-11T05:56:56.834Z,6.00
2023-03-11T05:59:26.012Z,5.75
2023-03-11T06:01:59.062Z,5.25
2023-03-11T06:04:27.541Z,5.75
2023-03-11T06:06:56.245Z,6.00
2023-03-11T06:09:27.187Z,5.25
2023-03-11T06:11:55.965Z,6.00
2023-03-11T06:14:31.710Z,5.50
2023-03-11T06:17:02.472Z,6.25
2023-03-11T06:19:30.591Z,6.00
2023-03-11T06:21:59.212Z,6.00
2023-03-11T06:24:27.422Z,6.00
2023-03-11T06:26:55.853Z,5.67
2023-03-11T06:29:26.923Z,6.00
2023-03-11T06:31:56.483Z,6.00
2023-03-11T06:34:24.604Z,6.00
2023-03-11T06:36:54.984Z,5.75
2023-03-11T06:39:23.212Z,6.00
2023-03-11T06:41:53.341Z,6.00
2023-03-11T06:44:21.815Z,5.75
2023-03-11T06:46:50.359Z,6.00
2023-03-11T06:49:19.502Z,6.00
2023-03-11T06:51:48.372Z,5.00
2023-03-11T06:54:17.340Z,6.00
2023-03-11T06:56:46.817Z,5.50
2023-03-11T06:59:15.998Z,6.00
2023-03-11T07:01:46.042Z,5.50
2023-03-11T07:04:15.133Z,6.00
2023-03-11T07:06:44.543Z,5.50
2023-03-11T07:09:17.905Z,7.00
2023-03-11T07:11:48.017Z,6.00
2023-03-11T07:14:23.404Z,6.00
2023-03-11T07:16:55.860Z,6.00
2023-03-11T07:19:42.715Z,6.50
2023-03-11T07:22:11.069Z,6.25
2023-03-11T07:24:39.164Z,6.00
2023-03-11T07:27:07.727Z,6.00
2023-03-11T07:29:35.755Z,5.50
2023-03-11T07:32:06.883Z,6.00
2023-03-11T07:34:35.829Z,6.75
2023-03-11T07:37:04.793Z,6.00
2023-03-11T07:39:33.152Z,6.25
2023-03-11T07:42:01.677Z,6.00
2023-03-11T07:44:36.563Z,6.00
2023-03-11T07:47:06.352Z,5.33
2023-03-11T07:49:36.194Z,6.25
2023-03-11T07:52:04.913Z,5.75
2023-03-11T07:54:32.995Z,6.25
2023-03-11T07:57:01.583Z,6.50
2023-03-11T07:59:29.963Z,6.50
2023-03-11T08:01:58.638Z,6.33
2023-03-11T08:04:26.820Z,6.25
2023-03-11T08:06:55.543Z,7.00
2023-03-11T08:09:23.603Z,6.75
2023-03-11T08:11:52.175Z,7.00
2023-03-11T08:14:20.418Z,6.50
2023-03-11T08:16:49.013Z,6.50
2023-03-11T08:19:17.255Z,7.50
2023-03-11T08:21:45.683Z,6.25
2023-03-11T08:24:14.375Z,7.00
2023-03-11T08:26:43.534Z,7.00
2023-03-11T08:29:11.733Z,6.25
2023-03-11T08:31:40.408Z,7.00
2023-03-11T08:34:10.832Z,6.25
2023-03-11T08:36:39.908Z,7.00
2023-03-11T08:39:08.259Z,7.33
2023-03-11T08:41:36.964Z,7.75
2023-03-11T08:44:05.720Z,7.25
2023-03-11T08:46:37.537Z,8.00
2023-03-11T08:49:06.676Z,7.67
2023-03-11T08:51:36.249Z,6.50
2023-03-11T08:54:05.126Z,11.00
2023-03-11T08:56:33.915Z,11.00
2023-03-11T08:59:02.470Z,9.75
2023-03-11T09:01:31.318Z,9.50
2023-03-11T09:03:59.702Z,8.75
2023-03-11T09:06:30.703Z,9.00
2023-03-11T09:08:58.825Z,10.33
2023-03-11T09:11:27.249Z,8.00
2023-03-11T09:13:55.274Z,9.25
2023-03-11T09:16:24.169Z,8.25
2023-03-11T09:18:52.413Z,8.50
2023-03-11T09:21:21.264Z,8.50
2023-03-11T09:23:49.361Z,8.00
2023-03-11T09:26:17.992Z,8.67
2023-03-11T09:28:49.573Z,9.00
2023-03-11T09:31:19.043Z,9.00
2023-03-11T09:33:47.618Z,8.67
2023-03-11T09:36:18.197Z,9.00
2023-03-11T09:38:46.516Z,8.00
2023-03-11T09:41:17.714Z,9.00
2023-03-11T09:44:13.519Z,10.25
2023-03-11T09:47:12.465Z,8.25
2023-03-11T09:49:52.583Z,9.67
2023-03-11T09:52:39.630Z,11.00
2023-03-11T09:55:21.523Z,9.75
2023-03-11T09:57:50.934Z,11.00
2023-03-11T10:00:21.281Z,10.75
2023-03-11T10:02:50.408Z,10.25
2023-03-11T10:05:28.920Z,11.67
2023-03-11T10:08:04.729Z,10.33
2023-03-11T10:10:40.563Z,10.00
2023-03-11T10:13:26.088Z,9.67
2023-03-11T10:15:59.949Z,13.75
2023-03-11T10:19:00.300Z,13.00
2023-03-11T10:21:40.495Z,11.25
2023-03-11T10:24:32.294Z,12.25
2023-03-11T10:27:04.285Z,12.50
2023-03-11T10:30:05.088Z,13.00
2023-03-11T10:32:41.523Z,15.25
2023-03-11T10:35:23.897Z,15.50
2023-03-11T10:38:00.140Z,15.00
2023-03-11T10:40:32.177Z,15.50
2023-03-11T10:43:06.506Z,13.50
2023-03-11T10:45:41.632Z,16.00
2023-03-11T10:48:14.706Z,15.00
2023-03-11T10:50:46.737Z,16.50
2023-03-11T10:53:16.839Z,13.00
2023-03-11T10:55:51.050Z,13.00
2023-03-11T10:58:22.730Z,12.75
2023-03-11T11:01:18.079Z,13.00
2023-03-11T11:03:50.380Z,12.75
2023-03-11T11:06:30.699Z,11.75
2023-03-11T11:09:04.868Z,12.00
2023-03-11T11:11:36.085Z,10.75
2023-03-11T11:14:04.121Z,11.00
2023-03-11T11:16:34.669Z,11.33
2023-03-11T11:19:13.808Z,10.50
2023-03-11T11:21:52.623Z,10.00
2023-03-11T11:24:30.290Z,9.50
2023-03-11T11:27:23.226Z,10.25
2023-03-11T11:30:09.325Z,9.67
2023-03-11T11:32:38.341Z,11.50
2023-03-11T11:35:17.266Z,10.75
2023-03-11T11:38:00.572Z,10.00
2023-03-11T11:40:31.306Z,10.00
2023-03-11T11:43:04.097Z,11.00
2023-03-11T11:45:37.379Z,11.00
2023-03-11T11:48:12.829Z,11.00
2023-03-11T11:50:46.447Z,10.50
2023-03-11T11:53:17.624Z,10.00
2023-03-11T11:55:49.972Z,9.67
2023-03-11T11:58:19.266Z,10.00
2023-03-11T12:01:09.055Z,9.75
2023-03-11T12:03:55.752Z,9.25
2023-03-11T12:06:35.167Z,10.25
2023-03-11T12:09:14.938Z,10.00
2023-03-11T12:11:51.885Z,9.50
2023-03-11T12:14:44.549Z,9.75
2023-03-11T12:17:13.929Z,10.00
2023-03-11T12:20:14.676Z,10.00
2023-03-11T12:23:05.349Z,10.25
2023-03-11T12:25:36.705Z,10.00
2023-03-11T12:28:09.486Z,9.75
2023-03-11T12:30:44.054Z,9.67
2023-03-11T12:33:20.146Z,8.75
2023-03-11T12:35:57.357Z,9.75
2023-03-11T12:38:33.262Z,9.75
2023-03-11T12:41:11.336Z,9.25
2023-03-11T12:43:41.946Z,9.25
2023-03-11T12:46:13.289Z,9.00
2023-03-11T12:48:46.109Z,9.25
2023-03-11T12:51:26.533Z,9.50
2023-03-11T12:53:55.970Z,8.00
2023-03-11T12:56:36.037Z,8.75
2023-03-11T12:59:34.299Z,9.00
2023-03-11T13:02:24.814Z,8.00
2023-03-11T13:05:31.921Z,10.00
2023-03-11T13:08:04.515Z,10.00
2023-03-11T13:10:42.662Z,11.50
2023-03-11T13:13:43.423Z,10.00
2023-03-11T13:16:14.449Z,11.25
2023-03-11T13:18:48.233Z,11.33
2023-03-11T13:21:28.468Z,11.50
2023-03-11T13:24:22.263Z,11.75
2023-03-11T13:26:59.876Z,10.00
2023-03-11T13:29:52.229Z,11.00
2023-03-11T13:32:53.791Z,12.00
2023-03-11T13:35:29.165Z,11.25
2023-03-11T13:38:21.242Z,11.00
2023-03-11T13:40:49.978Z,11.00
2023-03-11T13:43:26.043Z,10.50
2023-03-11T13:46:28.274Z,11.00
2023-03-11T13:49:05.214Z,11.25
2023-03-11T13:51:44.272Z,10.25
2023-03-11T13:54:20.311Z,10.00
2023-03-11T13:56:54.187Z,11.67
2023-03-11T13:59:33.844Z,10.50
2023-03-11T14:02:17.219Z,11.00
2023-03-11T14:04:50.518Z,10.33
2023-03-11T14:07:29.343Z,10.00
2023-03-11T14:10:12.552Z,10.50
2023-03-11T14:12:41.089Z,10.75
2023-03-11T14:15:10.124Z,11.00
2023-03-11T14:17:38.637Z,9.67
2023-03-11T14:20:23.934Z,10.00
2023-03-11T14:22:55.108Z,9.75
2023-03-11T14:25:26.117Z,11.00
2023-03-11T14:27:56.617Z,10.50
2023-03-11T14:30:29.100Z,10.75
2023-03-11T14:33:06.807Z,10.00
2023-03-11T14:35:35.012Z,10.00
2023-03-11T14:38:03.468Z,9.00
2023-03-11T14:40:34.509Z,10.25
2023-03-11T14:43:06.810Z,9.33
2023-03-11T14:45:37.634Z,9.25
2023-03-11T14:48:27.491Z,8.00
2023-03-11T14:50:58.273Z,9.00
2023-03-11T14:53:42.015Z,8.50
2023-03-11T14:56:21.982Z,9.00
2023-03-11T14:59:12.687Z,8.00
2023-03-11T15:01:42.732Z,9.00
2023-03-11T15:04:14.024Z,8.25
2023-03-11T15:06:44.071Z,8.50
2023-03-11T15:09:16.212Z,8.75
2023-03-11T15:11:57.822Z,7.67
2023-03-11T15:14:32.029Z,7.67
2023-03-11T15:17:17.502Z,8.00
2023-03-11T15:19:56.078Z,7.50
2023-03-11T15:22:47.577Z,8.00
2023-03-11T15:25:18.446Z,8.25
2023-03-11T15:27:46.922Z,7.75
2023-03-11T15:30:27.837Z,7.67
2023-03-11T15:32:56.871Z,8.75
2023-03-11T15:35:27.662Z,8.25
2023-03-11T15:38:23.792Z,8.00
2023-03-11T15:40:59.176Z,8.25
2023-03-11T15:43:28.478Z,8.00
2023-03-11T15:45:58.327Z,7.00
2023-03-11T15:48:29.320Z,7.75
2023-03-11T15:50:59.577Z,7.00
2023-03-11T15:53:28.933Z,7.75
2023-03-11T15:56:06.925Z,7.50
2023-03-11T15:58:38.320Z,7.00
2023-03-11T16:01:07.560Z,8.50
2023-03-11T16:03:35.840Z,7.75
2023-03-11T16:06:04.541Z,8.50
2023-03-11T16:08:33.096Z,7.00
2023-03-11T16:11:01.900Z,7.00
2023-03-11T16:13:30.063Z,8.00
2023-03-11T16:15:58.446Z,8.33
2023-03-11T16:18:26.811Z,7.50
2023-03-11T16:20:55.696Z,7.00
2023-03-11T16:23:28.195Z,7.25
2023-03-11T16:26:04.302Z,7.00
2023-03-11T16:28:32.417Z,7.00
2023-03-11T16:31:01.002Z,8.67
2023-03-11T16:33:29.296Z,7.33
2023-03-11T16:35:58.115Z,7.00
2023-03-11T16:38:26.269Z,7.00
2023-03-11T16:40:59.811Z,8.00
2023-03-11T16:43:29.551Z,7.50
2023-03-11T16:45:58.248Z,7.00
2023-03-11T16:48:26.442Z,7.00
2023-03-11T16:50:54.880Z,7.50
2023-03-11T16:53:25.593Z,7.33
2023-03-11T16:55:54.675Z,7.50
2023-03-11T16:58:23.196Z,7.00
2023-03-11T17:00:51.806Z,7.75
2023-03-11T17:03:21.855Z,7.50
2023-03-11T17:05:50.985Z,7.00
2023-03-11T17:08:19.227Z,7.00
2023-03-11T17:10:47.949Z,7.25
2023-03-11T17:13:18.906Z,7.75
2023-03-11T17:15:58.372Z,7.00
2023-03-11T17:18:26.993Z,7.25
2023-03-11T17:20:55.443Z,8.00
2023-03-11T17:23:23.540Z,7.67
2023-03-11T17:25:52.065Z,7.67
2023-03-11T17:28:20.313Z,7.00
2023-03-11T17:30:49.029Z,7.75
2023-03-11T17:33:17.167Z,7.00
2023-03-11T17:35:47.255Z,7.75
2023-03-11T17:38:16.644Z,7.50
2023-03-11T17:40:45.518Z,7.00
2023-03-11T17:43:13.750Z,7.00
2023-03-11T17:45:42.774Z,7.00
2023-03-11T17:48:11.164Z,7.00
2023-03-11T17:50:39.959Z,7.75
2023-03-11T17:53:08.215Z,8.00
2023-03-11T17:55:40.119Z,7.75
2023-03-11T17:58:09.031Z,7.50
2023-03-11T18:00:38.139Z,8.50
2023-03-11T18:03:06.519Z,7.75
2023-03-11T18:05:37.824Z,8.00
2023-03-11T18:08:06.013Z,8.00
2023-03-11T18:10:34.839Z,6.50
2023-03-11T18:13:03.320Z,8.75
2023-03-11T18:15:31.789Z,7.33
2023-03-11T18:17:59.978Z,7.25
2023-03-11T18:20:28.388Z,7.50
2023-03-11T18:22:56.566Z,8.00
2023-03-11T18:25:25.008Z,7.75
2023-03-11T18:27:53.123Z,7.50
2023-03-11T18:30:21.733Z,7.75
2023-03-11T18:32:49.969Z,8.00
2023-03-11T18:35:18.976Z,8.50
2023-03-11T18:37:47.204Z,8.25
2023-03-11T18:40:15.758Z,8.00
2023-03-11T18:42:43.910Z,8.00
2023-03-11T18:45:12.837Z,8.00
2023-03-11T18:47:40.987Z,7.25
2023-03-11T18:50:10.344Z,7.25
2023-03-11T18:52:38.709Z,7.00
2023-03-11T18:55:07.783Z,8.33
2023-03-11T18:57:36.044Z,8.33
2023-03-11T19:00:05.275Z,8.25
2023-03-11T19:02:33.724Z,8.00
2023-03-11T19:05:02.718Z,9.00
2023-03-11T19:07:31.040Z,8.75
2023-03-11T19:09:59.576Z,8.50
2023-03-11T19:12:29.757Z,8.25
2023-03-11T19:14:58.484Z,8.00
2023-03-11T19:17:26.768Z,8.00
2023-03-11T19:19:55.462Z,8.00
2023-03-11T19:22:23.643Z,8.25
2023-03-11T19:24:54.082Z,8.50
2023-03-11T19:27:22.220Z,9.00
2023-03-11T19:29:50.686Z,8.00
2023-03-11T19:32:18.996Z,8.00
2023-03-11T19:34:48.199Z,9.00
2023-03-11T19:37:17.721Z,8.25
2023-03-11T19:39:46.165Z,9.25
2023-03-11T19:42:14.377Z,8.75
2023-03-11T19:44:42.828Z,9.00
2023-03-11T19:47:11.188Z,8.75
2023-03-11T19:49:39.740Z,9.00
2023-03-11T19:52:10.079Z,9.00
2023-03-11T19:54:38.697Z,7.75
2023-03-11T19:57:07.087Z,8.75
2023-03-11T19:59:35.614Z,8.50
2023-03-11T20:02:06.054Z,9.75
2023-03-11T20:04:34.774Z,10.25
2023-03-11T20:07:03.294Z,9.50
2023-03-11T20:09:34.783Z,9.00
2023-03-11T20:12:03.151Z,9.25
2023-03-11T20:14:31.765Z,10.75
2023-03-11T20:17:00.038Z,11.25
2023-03-11T20:19:28.812Z,10.75
2023-03-11T20:21:57.090Z,9.25
2023-03-11T20:24:25.869Z,10.00
2023-03-11T20:26:54.093Z,10.00
2023-03-11T20:29:22.718Z,9.50
2023-03-11T20:31:51.479Z,10.33
2023-03-11T20:34:19.947Z,9.75
2023-03-11T20:36:48.711Z,10.25
2023-03-11T20:39:17.429Z,11.33
2023-03-11T20:41:45.665Z,11.00
2023-03-11T20:44:14.405Z,12.00
2023-03-11T20:46:42.738Z,11.33
2023-03-11T20:49:11.487Z,11.33
2023-03-11T20:51:41.810Z,10.33
2023-03-11T20:54:12.368Z,11.25
2023-03-11T20:56:41.235Z,12.00
2023-03-11T20:59:14.165Z,11.00
2023-03-11T21:01:42.924Z,11.00
2023-03-11T21:04:12.078Z,12.75
2023-03-11T21:06:41.394Z,11.50
2023-03-11T21:09:14.867Z,12.00
2023-03-11T21:11:43.183Z,10.50
2023-03-11T21:14:15.698Z,11.00
2023-03-11T21:16:45.573Z,10.00
2023-03-11T21:19:14.933Z,11.25
2023-03-11T21:21:43.500Z,10.25
2023-03-11T21:24:12.885Z,10.67
2023-03-11T21:26:41.345Z,11.00
2023-03-11T21:29:11.850Z,11.25
2023-03-11T21:31:40.053Z,10.75
2023-03-11T21:34:10.924Z,10.00
2023-03-11T21:36:39.865Z,11.00
2023-03-11T21:39:08.718Z,10.00
2023-03-11T21:41:37.137Z,9.00
2023-03-11T21:44:05.776Z,11.33
2023-03-11T21:46:34.234Z,9.50
2023-03-11T21:49:02.938Z,10.50
2023-03-11T21:51:31.261Z,10.00
2023-03-11T21:53:59.760Z,10.75
2023-03-11T21:56:28.815Z,10.33
2023-03-11T21:58:57.602Z,9.67
2023-03-11T22:01:25.863Z,10.50
2023-03-11T22:03:55.480Z,10.75
2023-03-11T22:06:24.504Z,10.00
2023-03-11T22:08:53.441Z,9.67
2023-03-11T22:11:21.731Z,9.00
2023-03-11T22:13:51.749Z,9.67
2023-03-11T22:16:21.054Z,8.50
2023-03-11T22:18:50.120Z,9.25
2023-03-11T22:21:20.915Z,10.00
2023-03-11T22:23:49.511Z,9.75
2023-03-11T22:26:18.018Z,10.50
2023-03-11T22:28:46.778Z,9.50
2023-03-11T22:31:17.614Z,10.00
2023-03-11T22:33:46.321Z,8.50
2023-03-11T22:36:14.836Z,10.00
2023-03-11T22:38:46.520Z,10.00
2023-03-11T22:41:17.251Z,9.00
2023-03-11T22:43:47.338Z,9.33
2023-03-11T22:46:15.824Z,9.25
2023-03-11T22:48:44.292Z,9.75
2023-03-11T22:51:13.139Z,8.50
2023-03-11T22:53:41.526Z,9.67
2023-03-11T22:56:12.947Z,9.00
2023-03-11T22:58:42.010Z,10.33
2023-03-11T23:01:11.253Z,8.50
2023-03-11T23:03:40.301Z,9.00
2023-03-11T23:06:09.814Z,9.75
2023-03-11T23:08:38.383Z,7.67
2023-03-11T23:11:09.607Z,9.00
2023-03-11T23:13:39.807Z,8.00
2023-03-11T23:16:14.397Z,9.00
2023-03-11T23:18:44.312Z,9.00
2023-03-11T23:21:25.146Z,8.00
2023-03-11T23:23:54.274Z,8.50
2023-03-11T23:26:22.986Z,8.00
2023-03-11T23:28:51.929Z,8.33
2023-03-11T23:31:21.923Z,9.25
2023-03-11T23:33:50.757Z,8.75
2023-03-11T23:36:20.675Z,8.33
2023-03-11T23:38:52.486Z,9.50
2023-03-11T23:41:22.015Z,9.00
2023-03-11T23:43:51.030Z,8.25
2023-03-11T23:46:19.541Z,9.00
2023-03-11T23:48:48.077Z,9.00
2023-03-11T23:51:16.319Z,9.25
2023-03-11T23:53:44.827Z,8.00
2023-03-11T23:56:18.014Z,8.50
2023-03-11T23:58:47.099Z,8.25
